Decoded Metar for KMOB (MOBILE in AL, USA) (IATA:MOB) | Meteo·Mobile Aviation Weather
aviador You're here:

KMOB Decoded Metar

MOBILE in AL, USA
Report Time2018-08-22 01:19:00
UTC Time2018-08-22 01:28:13
Flight Rules vfr VFR
Wind200° at 03 kt
W.Decomp.*RWY 18: 2.8 kt HW 1.1 kt RCW
RWY 14: 1.5 kt HW 2.6 kt RCW
W.Rank200° ranks 7
Current wind is below 200° avg. (7.4)
Visibility9999 m
Phenomena:Vicinity thunderstorm
Clouds:Few 020 Hf
Scattered CB 031 Hf
Broken 043 Hf
Expected CloudBase > 800 ft AGL from Temp-Dew spread
Ceiling4,300 ft
Temp25°C (ISA +10)
Dew Point23°C (89% RH)
QNH1018 hPa
Density Alt1,614 ft
Elevation207 ft
Report Wrong Elevation
Raw Report
KMOB 220119Z 20003KT 8SM VCTS FEW020 SCT031CB BKN043 25/23 A3005=

Extra information for KMOB:More info

Metar Taf Metar & Taf Last 4 Metars F.Rules Stats Wind Profile Meteogram Temp Stats Airport Information Weather charts Add Link Nearby VenuesMetar ALERT Operation Metar Decoded Social comments

AIRNAV info for KMOB